Time;durP1;ratioP1;P1;durP2;ratioP2;P2;SDS_P1;SDS_P2;PMS_P1;PMS_P2;Temp;Humidity;BMP_temperature;BMP_pressure;BME280_temperature;BME280_humidity;BME280_pressure;Samples;Min_cycle;Max_cycle;Signal;HPM_P1;HPM_P2
2021/06/21 00:00:19;;;;;;;9.63;4.93;;;;;;;23.60;63.07;97289.81;4975808;28;20115;-79
2021/06/21 00:02:44;;;;;;;17.38;6.75;;;;;;;23.54;63.23;97277.44;4992996;28;20038;-78
2021/06/21 00:05:11;;;;;;;11.32;4.55;;;;;;;23.46;63.70;97290.63;4993398;28;20088;-79
2021/06/21 00:07:37;;;;;;;10.30;4.75;;;;;;;23.49;63.46;97275.06;4985784;28;20483;-79
2021/06/21 00:10:04;;;;;;;9.30;5.50;;;;;;;23.58;63.59;97281.06;5000659;28;20141;-79
2021/06/21 00:12:30;;;;;;;7.03;4.75;;;;;;;23.63;63.24;97275.88;5001432;28;20029;-77
2021/06/21 00:14:55;;;;;;;8.45;4.53;;;;;;;23.64;63.54;97282.25;5002269;28;20041;-77
2021/06/21 00:17:21;;;;;;;6.50;4.53;;;;;;;23.62;63.18;97282.66;4997436;28;20022;-77
2021/06/21 00:19:46;;;;;;;9.32;5.20;;;;;;;23.53;63.92;97284.22;4995643;28;20558;-78
2021/06/21 00:22:14;;;;;;;9.48;5.70;;;;;;;23.54;64.09;97281.06;5003086;28;20387;-78
2021/06/21 00:24:40;;;;;;;11.88;5.75;;;;;;;23.45;64.71;97275.06;5004028;28;20032;-79
2021/06/21 00:27:06;;;;;;;8.85;5.53;;;;;;;23.44;64.90;97274.25;4994789;28;20057;-78
2021/06/21 00:29:31;;;;;;;16.08;5.82;;;;;;;23.38;65.48;97272.22;5012336;28;20513;-77
2021/06/21 00:31:57;;;;;;;16.67;5.90;;;;;;;23.32;66.09;97263.44;5012397;28;20056;-77
2021/06/21 00:34:22;;;;;;;19.45;6.10;;;;;;;23.37;66.19;97262.22;5012548;28;20028;-78
2021/06/21 00:36:48;;;;;;;11.82;6.45;;;;;;;23.26;66.85;97256.66;5012910;28;20099;-76
2021/06/21 00:39:13;;;;;;;7.85;6.43;;;;;;;23.27;66.92;97257.44;5012923;28;20505;-77
2021/06/21 00:41:38;;;;;;;9.32;7.38;;;;;;;23.34;67.09;97251.84;5012205;28;20029;-77
2021/06/21 00:44:05;;;;;;;9.63;5.93;;;;;;;23.34;66.98;97249.88;5012236;28;20032;-79
2021/06/21 00:46:30;;;;;;;9.70;6.07;;;;;;;23.38;66.97;97261.84;5012861;28;20046;-76
2021/06/21 00:48:56;;;;;;;12.52;6.40;;;;;;;23.34;67.71;97263.81;4994407;28;20057;-76
2021/06/21 00:51:22;;;;;;;10.25;6.50;;;;;;;23.32;67.74;97260.63;5011505;28;20112;-77
2021/06/21 00:53:48;;;;;;;12.57;5.78;;;;;;;23.31;67.78;97259.03;4995179;28;20117;-78
2021/06/21 00:56:15;;;;;;;10.73;5.30;;;;;;;23.34;67.62;97258.25;4989017;28;20017;-77
2021/06/21 00:58:40;;;;;;;10.48;5.28;;;;;;;23.32;67.68;97260.63;5001373;28;20068;-76
2021/06/21 01:01:06;;;;;;;12.88;5.85;;;;;;;23.24;68.11;97252.66;5006098;28;20033;-77
2021/06/21 01:03:32;;;;;;;9.13;6.47;;;;;;;23.15;68.69;97255.03;4993321;28;20479;-79
2021/06/21 01:05:57;;;;;;;8.88;5.07;;;;;;;23.04;69.24;97254.97;4994961;28;20041;-76
2021/06/21 01:08:23;;;;;;;10.15;6.40;;;;;;;23.02;69.30;97256.56;5012296;28;20792;-79
2021/06/21 01:10:51;;;;;;;9.40;6.10;;;;;;;23.07;69.18;97265.34;4994436;28;20360;-77
2021/06/21 01:13:40;;;;;;;13.20;7.28;;;;;;;22.91;69.76;97257.34;5014941;28;20395;-79
2021/06/21 01:16:21;;;;;;;10.13;5.80;;;;;;;22.94;69.82;97250.16;5012542;28;20033;-77
2021/06/21 01:19:01;;;;;;;8.32;6.38;;;;;;;23.00;69.52;97245.78;5011314;28;20026;-77
2021/06/21 01:21:55;;;;;;;16.08;6.13;;;;;;;23.05;69.54;97247.41;4994517;28;20080;-77
2021/06/21 01:24:39;;;;;;;17.27;7.80;;;;;;;23.05;69.20;97244.63;4984143;28;20041;-78
2021/06/21 01:27:37;;;;;;;11.32;5.85;;;;;;;23.06;69.41;97247.00;4993239;28;20391;-78
2021/06/21 01:30:08;;;;;;;11.15;5.88;;;;;;;23.02;69.32;97254.59;5010606;28;20040;-76
2021/06/21 01:32:40;;;;;;;9.00;6.13;;;;;;;22.90;70.25;97249.34;5002718;28;20034;-77
2021/06/21 01:35:09;;;;;;;10.55;6.50;;;;;;;22.85;70.28;97258.91;4983291;28;20126;-80
2021/06/21 01:37:36;;;;;;;9.57;6.05;;;;;;;22.82;70.68;97240.16;4987467;28;20036;-78
2021/06/21 01:40:03;;;;;;;8.05;6.40;;;;;;;22.73;70.78;97223.00;5009918;28;20504;-78
2021/06/21 01:42:29;;;;;;;6.75;5.65;;;;;;;22.82;70.91;97247.72;4993301;28;20030;-78
2021/06/21 01:45:05;;;;;;;10.63;6.47;;;;;;;22.85;70.14;97253.34;4993609;28;20161;-80
2021/06/21 01:47:33;;;;;;;11.20;5.60;;;;;;;22.77;70.24;97256.50;4994457;28;20061;-78
2021/06/21 01:49:59;;;;;;;8.95;6.40;;;;;;;22.62;70.94;97243.63;4993851;28;20498;-79
2021/06/21 01:52:30;;;;;;;13.32;6.40;;;;;;;22.55;71.22;97243.63;5011125;28;20505;-79
2021/06/21 01:54:58;;;;;;;9.95;5.82;;;;;;;22.50;71.49;97247.56;4993230;28;20033;-78
2021/06/21 01:57:27;;;;;;;11.75;5.60;;;;;;;22.63;71.17;97253.59;4993421;28;20030;-79
2021/06/21 01:59:54;;;;;;;10.15;5.47;;;;;;;22.61;71.04;97261.56;5009873;28;20628;-79
2021/06/21 02:02:22;;;;;;;6.65;5.97;;;;;;;22.62;71.05;97255.56;4994321;28;20165;-78
2021/06/21 02:04:51;;;;;;;9.15;6.82;;;;;;;22.49;71.86;97254.31;5011651;28;20030;-78
2021/06/21 02:07:19;;;;;;;9.20;5.43;;;;;;;22.49;72.17;97251.53;5008801;28;20426;-78
2021/06/21 02:09:47;;;;;;;8.27;5.43;;;;;;;22.52;71.85;97255.53;5000929;28;20475;-78
2021/06/21 02:12:17;;;;;;;15.52;8.52;;;;;;;22.52;71.64;97249.97;4982355;28;20494;-77
2021/06/21 02:14:42;;;;;;;7.78;5.50;;;;;;;22.50;72.02;97247.56;5010186;28;20022;-78
2021/06/21 02:17:09;;;;;;;8.13;5.22;;;;;;;22.46;72.43;97245.97;4993250;28;20033;-79
2021/06/21 02:19:34;;;;;;;14.43;6.65;;;;;;;22.38;72.59;97242.31;5010858;28;20045;-79
2021/06/21 02:22:00;;;;;;;12.23;6.93;;;;;;;22.33;73.13;97242.69;4993340;28;20022;-77
2021/06/21 02:24:27;;;;;;;12.68;6.05;;;;;;;22.35;72.93;97255.06;4993210;28;20122;-80
2021/06/21 02:26:53;;;;;;;12.05;6.35;;;;;;;22.26;73.32;97260.19;5011040;28;20037;-76
2021/06/21 02:29:21;;;;;;;10.50;6.63;;;;;;;22.13;73.88;97233.00;5010579;28;20116;-78
2021/06/21 02:31:47;;;;;;;16.23;7.38;;;;;;;22.27;73.58;97239.47;4993383;28;20510;-78
2021/06/21 02:34:13;;;;;;;10.07;6.18;;;;;;;22.27;72.99;97227.53;4993626;28;20069;-78
2021/06/21 02:36:39;;;;;;;12.48;6.13;;;;;;;22.29;72.89;97223.16;5011453;28;20026;-77
2021/06/21 02:39:06;;;;;;;12.65;6.57;;;;;;;22.22;73.45;97227.91;5010309;28;20109;-77
2021/06/21 02:41:32;;;;;;;8.70;5.75;;;;;;;22.23;73.49;97226.72;4987287;28;20030;-77
2021/06/21 02:43:57;;;;;;;10.02;5.82;;;;;;;22.23;72.97;97232.28;5000332;28;20034;-78
2021/06/21 02:46:23;;;;;;;11.63;5.68;;;;;;;22.14;72.95;97215.91;4976480;28;20395;-77
2021/06/21 02:48:48;;;;;;;7.82;5.32;;;;;;;22.16;73.37;97227.47;4988963;28;20042;-78
2021/06/21 02:51:19;;;;;;;13.32;6.05;;;;;;;22.14;73.68;97234.63;4973363;28;20387;-78
2021/06/21 02:54:19;;;;;;;15.35;7.03;;;;;;;22.06;74.09;97238.53;4990607;28;20112;-79
2021/06/21 02:57:04;;;;;;;10.77;6.07;;;;;;;21.96;74.23;97248.41;4953361;28;20043;-77
2021/06/21 02:59:36;;;;;;;13.48;6.43;;;;;;;21.91;74.51;97246.00;4988926;28;20048;-77
2021/06/21 03:02:02;;;;;;;10.40;6.78;;;;;;;21.95;74.38;97244.03;4989770;28;20395;-78
2021/06/21 03:04:30;;;;;;;11.23;6.70;;;;;;;21.99;74.41;97250.41;4989520;28;20026;-77
2021/06/21 03:06:57;;;;;;;15.23;6.75;;;;;;;21.83;74.56;97233.97;4974037;28;20030;-79
2021/06/21 03:09:26;;;;;;;13.57;6.50;;;;;;;21.96;74.62;97256.00;4975411;28;20069;-77
2021/06/21 03:11:52;;;;;;;11.38;6.93;;;;;;;21.98;74.67;97254.41;4972834;28;20034;-77
2021/06/21 03:14:24;;;;;;;14.00;6.22;;;;;;;21.97;74.38;97254.78;4973691;28;20109;-78
2021/06/21 03:16:52;;;;;;;10.77;6.32;;;;;;;21.96;74.97;97250.44;4975306;28;20023;-78
2021/06/21 03:19:18;;;;;;;10.20;5.93;;;;;;;22.01;74.20;97250.84;4995086;28;20027;-79
2021/06/21 03:21:44;;;;;;;12.55;6.55;;;;;;;22.01;73.81;97256.44;4999488;28;20037;-79
2021/06/21 03:24:14;;;;;;;9.20;5.70;;;;;;;21.95;73.84;97249.63;5002931;28;20046;-78
2021/06/21 03:26:42;;;;;;;11.73;5.90;;;;;;;22.01;73.57;97250.06;5010666;28;20083;-78
2021/06/21 03:29:14;;;;;;;13.88;6.53;;;;;;;21.94;73.91;97258.34;4996311;28;20038;-78
2021/06/21 03:31:41;;;;;;;10.52;6.45;;;;;;;21.88;74.27;97250.38;5014013;28;22385;-78
2021/06/21 03:34:06;;;;;;;9.50;6.38;;;;;;;21.91;74.45;97259.13;5013878;28;20033;-78
2021/06/21 03:36:31;;;;;;;10.93;5.57;;;;;;;21.90;74.43;97252.75;5014807;28;20429;-78
2021/06/21 03:38:57;;;;;;;10.70;6.45;;;;;;;21.89;74.24;97262.31;5013696;28;20160;-78
2021/06/21 03:41:22;;;;;;;13.98;5.50;;;;;;;21.80;73.92;97248.66;4996357;28;20037;-79
2021/06/21 03:43:47;;;;;;;10.88;6.55;;;;;;;21.85;74.14;97251.09;4996432;28;20029;-79
2021/06/21 03:46:13;;;;;;;10.85;5.97;;;;;;;21.81;74.84;97243.91;4996911;28;20037;-77
2021/06/21 03:48:38;;;;;;;15.65;7.10;;;;;;;21.95;74.54;97249.63;4996838;28;20153;-77
2021/06/21 03:51:05;;;;;;;11.00;6.20;;;;;;;21.95;73.82;97244.03;5014059;28;20038;-78
2021/06/21 03:53:30;;;;;;;10.75;5.90;;;;;;;21.93;73.79;97234.50;4996066;28;20040;-77
2021/06/21 03:55:56;;;;;;;17.65;6.95;;;;;;;21.94;73.93;97245.22;5009609;28;20037;-78
2021/06/21 03:58:22;;;;;;;13.23;7.72;;;;;;;21.95;74.89;97241.25;5002996;28;20037;-77
2021/06/21 04:00:48;;;;;;;13.60;7.93;;;;;;;21.89;77.02;97245.59;5000760;28;20081;-77
2021/06/21 04:03:14;;;;;;;13.23;9.02;;;;;;;21.92;76.87;97238.44;4981050;28;20014;-78
2021/06/21 04:05:40;;;;;;;13.60;9.18;;;;;;;21.70;78.46;97240.25;5012397;28;20399;-78
2021/06/21 04:08:07;;;;;;;20.58;9.52;;;;;;;21.67;79.10;97243.78;5012943;28;20065;-80
2021/06/21 04:10:33;;;;;;;14.23;9.55;;;;;;;21.60;79.61;97240.94;5013653;28;20022;-77
2021/06/21 04:12:59;;;;;;;13.00;9.57;;;;;;;21.52;80.63;97248.41;4995154;28;20076;-78
2021/06/21 04:15:30;;;;;;;9.82;8.82;;;;;;;21.61;79.79;97245.34;4990347;28;20022;-79
2021/06/21 04:18:00;;;;;;;12.18;8.93;;;;;;;21.61;80.77;97256.47;4994165;28;20026;-79
2021/06/21 04:20:26;;;;;;;13.90;8.85;;;;;;;21.65;80.67;97254.50;4992741;28;20038;-78
2021/06/21 04:22:56;;;;;;;15.48;10.55;;;;;;;21.57;80.71;97248.09;4975871;28;20041;-78
2021/06/21 04:25:23;;;;;;;16.45;9.02;;;;;;;21.49;80.89;97257.53;4976043;28;20022;-78
2021/06/21 04:27:49;;;;;;;17.90;9.45;;;;;;;21.67;81.00;97254.94;4991522;28;20030;-78
2021/06/21 04:30:17;;;;;;;16.83;9.98;;;;;;;21.79;80.79;97263.78;4991908;28;20030;-78
2021/06/21 04:32:43;;;;;;;18.40;9.98;;;;;;;21.91;80.65;97262.72;5000898;28;20030;-77
2021/06/21 04:35:11;;;;;;;19.60;9.65;;;;;;;22.10;79.64;97267.22;4983613;28;20027;-78
2021/06/21 04:37:37;;;;;;;13.68;9.25;;;;;;;22.32;78.81;97280.91;4978752;28;20023;-79
2021/06/21 04:40:05;;;;;;;15.00;10.23;;;;;;;22.45;77.56;97270.25;4992152;28;20117;-80
2021/06/21 04:42:30;;;;;;;12.80;9.77;;;;;;;22.49;76.69;97270.25;4975491;28;20034;-78
2021/06/21 04:44:56;;;;;;;17.85;9.98;;;;;;;22.55;76.02;97282.66;4993139;28;20034;-77
2021/06/21 04:47:25;;;;;;;14.48;9.40;;;;;;;22.48;75.69;97290.97;4993704;28;20062;-77
2021/06/21 04:49:52;;;;;;;14.00;9.07;;;;;;;22.50;76.31;97288.56;4995169;28;20120;-74
2021/06/21 04:52:19;;;;;;;15.13;9.75;;;;;;;22.64;75.83;97294.25;5000453;28;20057;-74
2021/06/21 04:54:48;;;;;;;16.08;8.98;;;;;;;22.76;75.15;97302.31;5012171;28;20025;-82
2021/06/21 04:57:13;;;;;;;14.60;9.88;;;;;;;22.75;74.92;97298.72;5018159;28;20109;-78
2021/06/21 04:59:39;;;;;;;12.82;8.20;;;;;;;22.95;74.81;97307.56;5013384;28;20129;-78
2021/06/21 05:02:04;;;;;;;14.98;9.10;;;;;;;23.03;74.13;97306.41;5014759;28;20034;-76
2021/06/21 05:04:29;;;;;;;21.92;9.73;;;;;;;23.24;73.76;97312.03;5012373;28;20030;-78
2021/06/21 05:06:55;;;;;;;17.73;9.85;;;;;;;23.33;73.18;97315.28;5012200;28;20475;-78
2021/06/21 05:09:20;;;;;;;16.00;10.32;;;;;;;23.41;72.72;97316.13;4998397;28;20510;-80
2021/06/21 05:11:47;;;;;;;19.67;10.85;;;;;;;23.46;72.39;97310.16;5003273;28;20026;-80
2021/06/21 05:14:12;;;;;;;21.60;11.82;;;;;;;23.53;71.91;97326.13;5005673;28;20173;-82
2021/06/21 05:16:39;;;;;;;25.27;13.02;;;;;;;23.65;71.78;97328.56;4976347;28;20501;-87
2021/06/21 05:19:06;;;;;;;23.67;11.27;;;;;;;23.77;70.70;97317.81;4993077;28;20038;-78
2021/06/21 05:21:33;;;;;;;27.10;12.45;;;;;;;23.81;70.21;97321.38;4993081;28;20034;-81
2021/06/21 05:23:59;;;;;;;26.05;10.75;;;;;;;23.92;69.64;97313.00;4975473;28;20496;-78
2021/06/21 05:26:24;;;;;;;23.55;10.77;;;;;;;23.98;69.20;97312.22;4983705;28;20030;-80
2021/06/21 05:28:50;;;;;;;17.92;10.35;;;;;;;24.06;68.23;97315.03;5013733;28;20057;-83
2021/06/21 05:31:15;;;;;;;24.13;9.60;;;;;;;24.11;68.05;97315.44;5012969;28;20022;-78
2021/06/21 05:33:43;;;;;;;15.00;9.82;;;;;;;24.21;68.26;97308.25;5008331;28;20033;-79
2021/06/21 05:36:08;;;;;;;9.27;8.02;;;;;;;24.24;67.31;97311.06;4996936;28;20120;-83
2021/06/21 05:38:34;;;;;;;19.75;8.02;;;;;;;24.27;66.91;97307.44;5014905;28;20068;-84
2021/06/21 05:40:59;;;;;;;11.38;8.00;;;;;;;24.30;66.33;97315.03;5013867;28;20018;-85
2021/06/21 05:43:25;;;;;;;12.27;7.88;;;;;;;24.43;67.06;97318.22;5004624;28;20021;-80
2021/06/21 05:45:50;;;;;;;12.38;8.15;;;;;;;24.63;66.35;97315.75;5005991;28;20458;-79
2021/06/21 05:48:16;;;;;;;18.08;10.05;;;;;;;24.58;66.58;97318.97;4998658;28;20041;-86
2021/06/21 05:50:42;;;;;;;18.20;7.82;;;;;;;24.62;66.28;97309.34;5000398;28;20092;-83
2021/06/21 05:53:08;;;;;;;14.68;9.43;;;;;;;24.74;65.77;97310.94;5005586;28;20022;-79
2021/06/21 05:55:33;;;;;;;15.70;8.20;;;;;;;24.79;65.24;97302.13;5007972;28;20022;-88
2021/06/21 05:58:00;;;;;;;14.32;7.40;;;;;;;24.96;64.64;97298.50;4981808;28;20065;-82
2021/06/21 06:00:26;;;;;;;19.30;7.68;;;;;;;25.04;63.83;97292.47;4999407;28;20026;-79
2021/06/21 06:02:51;;;;;;;11.50;6.40;;;;;;;25.18;63.81;97288.03;5002451;28;20028;-85
2021/06/21 06:05:17;;;;;;;15.32;7.60;;;;;;;25.34;62.70;97297.50;4982532;28;20479;-80
2021/06/21 06:07:43;;;;;;;21.70;6.97;;;;;;;25.32;62.96;97296.34;5000059;28;20034;-78
2021/06/21 06:10:09;;;;;;;9.45;6.70;;;;;;;25.41;62.82;97300.28;5002329;28;20046;-85
2021/06/21 06:12:35;;;;;;;15.90;7.45;;;;;;;25.44;63.31;97302.25;4994188;28;20129;-85
2021/06/21 06:15:02;;;;;;;15.35;7.30;;;;;;;25.49;63.48;97299.09;5001239;28;20061;-77
2021/06/21 06:17:27;;;;;;;14.02;9.35;;;;;;;25.75;61.91;97308.91;4998687;28;20041;-74
2021/06/21 06:19:53;;;;;;;24.60;7.32;;;;;;;25.77;61.29;97300.91;4981898;28;20030;-72
2021/06/21 06:22:18;;;;;;;12.25;6.05;;;;;;;25.81;61.82;97306.47;5000121;28;20037;-73
2021/06/21 06:24:44;;;;;;;13.82;7.03;;;;;;;25.92;61.09;97301.56;5001835;28;20483;-73
2021/06/21 06:27:09;;;;;;;17.50;6.45;;;;;;;26.07;60.89;97291.84;5000133;28;20025;-73
2021/06/21 06:29:35;;;;;;;16.40;6.75;;;;;;;26.17;60.51;97281.78;5000172;28;20048;-77
2021/06/21 06:32:02;;;;;;;10.77;6.22;;;;;;;26.34;59.96;97290.03;4998775;28;20097;-76
2021/06/21 06:34:27;;;;;;;22.73;7.13;;;;;;;26.52;59.93;97301.88;5000393;28;20026;-75
2021/06/21 06:36:53;;;;;;;10.50;6.82;;;;;;;26.72;59.15;97292.84;5000361;28;20092;-78
2021/06/21 06:39:20;;;;;;;9.23;5.57;;;;;;;27.01;56.92;97300.53;4998803;28;20121;-77
2021/06/21 06:41:46;;;;;;;10.73;5.03;;;;;;;27.10;57.24;97300.03;4998937;28;20364;-77
2021/06/21 06:44:12;;;;;;;9.57;5.03;;;;;;;27.16;55.41;97308.81;4981993;28;20025;-76
2021/06/21 06:46:37;;;;;;;10.00;5.00;;;;;;;27.31;55.20;97302.59;5000672;28;20030;-77
2021/06/21 06:49:04;;;;;;;14.85;6.15;;;;;;;27.47;54.99;97299.97;4999022;28;20073;-78
2021/06/21 06:51:36;;;;;;;24.73;5.93;;;;;;;27.71;53.85;97305.66;4999922;28;20434;-79
2021/06/21 06:57:04;;;;;;;9.23;4.28;;;;;;;27.78;52.72;97289.50;4976314;28;20130;-78
2021/06/21 06:59:38;;;;;;;12.50;5.13;;;;;;;27.86;52.19;97296.59;4980665;28;20029;-78
2021/06/21 07:02:13;;;;;;;12.23;5.10;;;;;;;28.04;52.62;97296.28;4996903;28;20022;-76
2021/06/21 07:04:39;;;;;;;9.15;5.40;;;;;;;28.10;51.77;97292.59;5002610;28;20030;-76
2021/06/21 07:07:06;;;;;;;6.03;4.22;;;;;;;28.21;51.70;97300.88;5004200;28;20040;-76
2021/06/21 07:09:34;;;;;;;14.60;5.18;;;;;;;28.39;50.89;97292.91;4984067;28;20026;-78
2021/06/21 07:12:00;;;;;;;15.43;4.28;;;;;;;28.47;49.71;97288.75;5004479;28;20152;-79
2021/06/21 07:14:30;;;;;;;10.27;4.85;;;;;;;28.49;49.87;97299.56;4988300;28;20026;-77
2021/06/21 07:16:56;;;;;;;8.60;4.57;;;;;;;28.58;49.94;97289.34;5006149;28;20030;-72
2021/06/21 07:19:21;;;;;;;10.38;3.60;;;;;;;28.61;49.25;97282.06;5005277;28;20103;-72
2021/06/21 07:21:48;;;;;;;13.90;4.75;;;;;;;28.77;49.46;97282.19;5003844;28;20022;-73
2021/06/21 07:24:15;;;;;;;16.17;5.80;;;;;;;28.89;48.23;97277.91;4985874;28;20062;-75
2021/06/21 07:26:43;;;;;;;8.88;3.65;;;;;;;29.05;48.02;97278.00;5002214;28;20026;-73
2021/06/21 07:29:08;;;;;;;12.57;4.53;;;;;;;29.23;47.96;97279.22;5003721;28;20036;-72
2021/06/21 07:31:34;;;;;;;10.45;4.57;;;;;;;29.36;46.92;97279.38;5003859;28;20108;-73
2021/06/21 07:34:00;;;;;;;11.27;3.97;;;;;;;29.48;45.57;97284.34;5002460;28;20034;-74
2021/06/21 07:36:26;;;;;;;10.43;4.13;;;;;;;29.58;44.93;97277.66;5000402;28;20026;-73
2021/06/21 07:38:52;;;;;;;14.15;3.72;;;;;;;29.61;45.13;97276.78;5005660;28;20022;-75
2021/06/21 07:41:18;;;;;;;16.10;4.75;;;;;;;29.63;45.65;97285.59;5004430;28;20034;-72
2021/06/21 07:43:44;;;;;;;14.90;5.60;;;;;;;29.71;44.91;97281.41;4996762;28;20076;-72
2021/06/21 07:46:10;;;;;;;21.38;5.47;;;;;;;29.83;44.50;97279.94;4993369;28;20049;-73
2021/06/21 07:48:37;;;;;;;12.05;4.03;;;;;;;29.94;44.43;97274.84;4993421;28;20054;-72
2021/06/21 07:51:05;;;;;;;18.95;5.10;;;;;;;29.97;43.58;97281.63;4993370;28;20030;-73
2021/06/21 07:53:30;;;;;;;16.08;4.22;;;;;;;30.13;43.16;97278.81;4994578;28;20029;-72
2021/06/21 07:55:56;;;;;;;19.35;4.30;;;;;;;30.33;43.30;97285.13;5006377;28;20113;-75
2021/06/21 07:58:21;;;;;;;20.35;5.72;;;;;;;30.39;42.53;97274.91;5013762;28;20057;-74
2021/06/21 08:00:47;;;;;;;17.35;4.45;;;;;;;30.65;41.75;97282.31;4995007;28;20074;-72
2021/06/21 08:03:12;;;;;;;13.55;4.30;;;;;;;30.82;41.85;97283.06;5006789;28;20451;-72
2021/06/21 08:05:39;;;;;;;12.43;4.03;;;;;;;31.25;41.05;97279.81;4983192;28;20405;-73
2021/06/21 08:08:07;;;;;;;9.70;3.47;;;;;;;31.69;39.68;97269.63;5000306;28;20038;-74
2021/06/21 08:10:33;;;;;;;14.27;3.97;;;;;;;31.99;39.43;97265.41;4999339;28;20333;-75
2021/06/21 08:12:59;;;;;;;15.32;3.78;;;;;;;32.34;38.40;97264.25;5000354;28;21536;-73
2021/06/21 08:15:24;;;;;;;11.10;3.90;;;;;;;32.56;38.07;97259.47;4998890;28;20112;-74
2021/06/21 08:17:49;;;;;;;18.42;4.55;;;;;;;32.86;37.60;97253.09;4987187;28;20057;-74
2021/06/21 08:20:15;;;;;;;14.27;4.68;;;;;;;33.24;37.52;97258.59;5001671;28;20072;-72
2021/06/21 08:22:41;;;;;;;12.20;4.40;;;;;;;33.52;36.40;97262.38;5002986;28;20029;-75
2021/06/21 08:25:08;;;;;;;16.83;4.72;;;;;;;33.80;35.73;97272.63;4984801;28;20165;-72
2021/06/21 08:27:33;;;;;;;11.75;3.47;;;;;;;33.75;35.35;97276.09;5001581;28;20080;-72
2021/06/21 08:29:59;;;;;;;16.50;4.57;;;;;;;33.82;35.08;97263.66;4999956;28;20034;-72
2021/06/21 08:32:25;;;;;;;15.85;3.75;;;;;;;33.88;35.38;97267.47;5003008;28;20072;-75
2021/06/21 08:34:51;;;;;;;14.90;4.32;;;;;;;33.69;35.51;97272.28;5001263;28;20076;-74
2021/06/21 08:37:18;;;;;;;19.00;4.30;;;;;;;33.48;36.31;97272.31;4997345;28;20050;-72
2021/06/21 08:39:44;;;;;;;15.10;3.63;;;;;;;33.39;36.32;97264.53;5002709;28;20027;-73
2021/06/21 08:42:09;;;;;;;10.23;4.00;;;;;;;33.51;36.22;97271.38;5001560;28;20021;-73
2021/06/21 08:44:35;;;;;;;14.80;4.40;;;;;;;33.60;35.75;97269.41;5002466;28;20371;-73
2021/06/21 08:47:03;;;;;;;13.32;4.68;;;;;;;33.33;36.45;97269.22;4996748;28;20565;-73
2021/06/21 08:49:33;;;;;;;7.95;3.42;;;;;;;33.08;37.06;97261.63;4984029;28;20040;-74
2021/06/21 08:51:59;;;;;;;11.05;3.42;;;;;;;32.91;37.56;97262.28;4984616;28;20033;-74
2021/06/21 08:54:24;;;;;;;14.00;4.85;;;;;;;32.62;38.62;97246.28;4988257;28;20026;-74
2021/06/21 08:56:50;;;;;;;12.50;4.68;;;;;;;32.67;38.75;97247.75;5011597;28;20042;-78
2021/06/21 08:59:15;;;;;;;14.13;5.15;;;;;;;32.62;38.48;97234.97;5011861;28;20040;-77
2021/06/21 09:01:41;;;;;;;20.80;4.55;;;;;;;32.87;38.53;97231.22;4994304;28;20037;-75
2021/06/21 09:04:10;;;;;;;9.23;4.50;;;;;;;32.92;38.00;97239.16;5011866;28;20042;-75
2021/06/21 09:06:37;;;;;;;13.80;4.72;;;;;;;33.05;37.66;97244.75;5011984;28;20037;-77
2021/06/21 09:09:03;;;;;;;16.08;4.93;;;;;;;33.13;38.05;97251.75;5011697;28;20022;-76
2021/06/21 09:11:45;;;;;;;12.82;6.07;;;;;;;33.06;37.73;97255.63;5012077;28;20038;-76
2021/06/21 09:14:25;;;;;;;19.40;5.65;;;;;;;33.19;38.22;97259.22;5011832;28;20116;-74
2021/06/21 09:17:11;;;;;;;20.48;5.30;;;;;;;33.25;38.08;97254.53;5011644;28;20034;-74
2021/06/21 09:19:49;;;;;;;;;;;;;;;33.26;38.00;97256.09;5012512;28;20042;-75
2021/06/21 09:22:40;;;;;;;24.90;5.50;;;;;;;33.27;38.36;97263.34;5011537;28;19914;-76
2021/06/21 09:25:15;;;;;;;16.48;7.13;;;;;;;33.21;38.24;97259.53;5006759;28;20458;-74
2021/06/21 09:27:43;;;;;;;18.08;6.00;;;;;;;33.16;38.44;97254.47;5000550;28;20146;-75
2021/06/21 09:30:11;;;;;;;19.42;6.05;;;;;;;33.13;38.49;97254.59;5004463;28;20026;-73
2021/06/21 09:32:46;;;;;;;14.02;5.00;;;;;;;33.08;38.35;97260.84;4982095;28;20029;-74
2021/06/21 09:35:32;;;;;;;;;;;;;;;32.91;39.37;97262.28;4993992;28;20022;-75
2021/06/21 09:38:02;;;;;;;21.05;5.18;;;;;;;32.72;39.79;97259.31;5000166;28;20008;-73
2021/06/21 09:40:40;;;;;;;18.80;6.07;;;;;;;32.71;40.11;97254.88;4999579;28;20547;-73
2021/06/21 09:43:35;;;;;;;20.92;6.45;;;;;;;32.58;39.23;97256.97;4995070;28;20038;-73
2021/06/21 09:46:01;;;;;;;23.05;7.65;;;;;;;32.49;39.45;97254.00;4993058;28;20129;-73
2021/06/21 09:48:35;;;;;;;21.27;7.07;;;;;;;32.40;40.30;97258.78;4991458;28;20474;-77
2021/06/21 09:51:24;;;;;;;21.65;6.05;;;;;;;32.40;39.38;97247.47;4991451;28;20045;-74
2021/06/21 09:53:54;;;;;;;21.10;4.65;;;;;;;32.40;39.60;97248.25;4973404;28;20427;-76
2021/06/21 09:56:37;;;;;;;14.52;4.03;;;;;;;32.44;40.00;97254.59;4991606;28;20065;-76
2021/06/21 09:59:28;;;;;;;19.52;5.78;;;;;;;32.49;38.57;97242.69;4991159;28;20037;-74
2021/06/21 10:02:18;;;;;;;27.20;6.38;;;;;;;32.58;37.07;97245.63;4991275;28;20054;-74
2021/06/21 10:04:45;;;;;;;21.23;4.75;;;;;;;32.71;37.14;97249.19;4980800;28;20080;-76
2021/06/21 10:07:37;;;;;;;20.35;4.20;;;;;;;32.77;37.23;97247.38;5000201;28;20034;-77
2021/06/21 10:10:08;;;;;;;21.85;4.78;;;;;;;32.58;36.81;97245.63;4998000;28;20021;-79
2021/06/21 10:12:34;;;;;;;22.58;5.53;;;;;;;32.48;37.63;97246.00;5000357;28;20026;-76
2021/06/21 10:15:04;;;;;;;24.98;5.18;;;;;;;32.51;37.74;97239.41;4998258;28;20034;-74
2021/06/21 10:17:32;;;;;;;18.90;4.78;;;;;;;32.64;37.75;97255.13;4998500;28;20383;-77
2021/06/21 10:19:58;;;;;;;20.88;5.53;;;;;;;32.67;36.33;97242.88;4981609;28;20038;-78
2021/06/21 10:22:25;;;;;;;26.30;5.68;;;;;;;32.72;36.70;97244.34;5001201;28;20038;-80
2021/06/21 10:24:58;;;;;;;13.18;4.20;;;;;;;32.72;36.79;97245.13;4999521;28;20479;-73
2021/06/21 10:27:26;;;;;;;18.83;4.57;;;;;;;32.78;36.36;97239.66;4998571;28;20085;-74
2021/06/21 10:29:53;;;;;;;31.42;4.47;;;;;;;32.76;36.50;97237.31;5004439;28;20030;-77
2021/06/21 10:32:19;;;;;;;18.40;5.43;;;;;;;32.86;35.58;97233.25;4999718;28;20030;-75
2021/06/21 10:34:49;;;;;;;21.48;4.78;;;;;;;32.85;35.93;97231.69;4990750;28;20026;-77
2021/06/21 10:37:20;;;;;;;19.58;4.05;;;;;;;32.98;35.98;97240.13;4990544;28;20026;-76
2021/06/21 10:39:51;;;;;;;25.88;4.45;;;;;;;32.97;35.38;97237.75;4989614;28;20041;-75
2021/06/21 10:42:19;;;;;;;26.05;5.32;;;;;;;32.84;35.82;97249.94;5002879;28;20026;-78
2021/06/21 10:44:54;;;;;;;35.38;6.63;;;;;;;32.75;35.57;97238.53;5008349;28;20034;-77
2021/06/21 10:47:24;;;;;;;16.17;5.20;;;;;;;32.77;35.53;97230.34;4997202;28;20112;-77
2021/06/21 10:50:00;;;;;;;21.00;3.58;;;;;;;32.66;35.61;97224.31;4973301;28;20439;-76
2021/06/21 10:52:33;;;;;;;29.23;4.75;;;;;;;32.70;35.74;97238.34;4997203;28;20030;-77
2021/06/21 10:55:21;;;;;;;22.95;5.75;;;;;;;32.63;35.52;97227.25;4999700;28;20096;-80
2021/06/21 10:57:58;;;;;;;29.48;8.30;;;;;;;32.52;35.28;97223.97;5002710;28;20026;-74
2021/06/21 11:00:36;;;;;;;25.13;5.13;;;;;;;32.46;35.44;97225.81;4977417;28;20030;-74
2021/06/21 11:03:04;;;;;;;21.55;4.78;;;;;;;32.48;35.51;97224.13;5001915;28;20505;-72
2021/06/21 11:05:39;;;;;;;16.02;5.55;;;;;;;32.53;35.28;97226.34;4999290;28;20050;-73
2021/06/21 11:08:22;;;;;;;17.30;4.78;;;;;;;32.59;33.93;97207.56;4998573;28;20022;-72
2021/06/21 11:10:50;;;;;;;27.33;6.47;;;;;;;32.54;34.09;97216.63;4999390;28;20383;-73
2021/06/21 11:13:34;;;;;;;22.83;5.40;;;;;;;32.66;34.28;97224.31;4998062;28;20049;-75
2021/06/21 11:16:25;;;;;;;31.67;7.22;;;;;;;32.69;33.90;97205.59;4999248;28;20023;-73
2021/06/21 11:19:23;;;;;;;24.60;4.90;;;;;;;32.63;33.80;97213.09;4999687;28;20031;-74
2021/06/21 11:21:56;;;;;;;23.17;5.25;;;;;;;32.59;34.13;97213.22;4997195;28;20038;-74
2021/06/21 11:24:42;;;;;;;17.73;4.88;;;;;;;32.59;34.32;97213.22;5000741;28;20076;-73
2021/06/21 11:27:16;;;;;;;34.00;6.38;;;;;;;32.54;34.33;97229.97;4997051;28;20060;-71
2021/06/21 11:29:47;;;;;;;15.90;4.05;;;;;;;32.50;34.22;97215.94;4997115;28;20448;-74
2021/06/21 11:32:14;;;;;;;19.77;6.55;;;;;;;32.44;34.36;97209.28;5002343;28;20470;-74
2021/06/21 11:34:57;;;;;;;25.38;6.28;;;;;;;32.42;34.55;97202.50;5000725;28;20080;-73
2021/06/21 11:37:37;;;;;;;20.23;4.43;;;;;;;32.38;34.93;97207.50;4996863;28;20030;-73